KPOF/POF METAR and TAF weather

Enter ICAO airport designator
Station Type Date Time Source
KPOF METAR 2019/04/23 03:53 UTC NOAA

KPOF 230353Z AUTO 20005KT 10SM CLR 18/12 A3003 RMK AO2 SLP168 T01780122


Station Type Date Time Source
KPOF Decoded METAR 2019/04/23 03:53 UTC NOAA

POPLAR BLUFF MUN AIRPORT, MO, United States (KPOF) 36-46N 090-19W 100M
Apr 22, 2019 - 11:53 PM EDT / 2019.04.23 0353 UTC
Wind: from the SSW (200 degrees) at 6 MPH (5 KT):0
Visibility: 10 mile(s):0
Sky conditions: clear
Temperature: 64.0 F (17.8 C)
Dew Point: 54.0 F (12.2 C)
Relative Humidity: 69%
Pressure (altimeter): 30.03 in. Hg (1016 hPa)
ob: KPOF 230353Z AUTO 20005KT 10SM CLR 18/12 A3003 RMK AO2 SLP168 T01780122
cycle: 4

Station Type Date Time Source
KPOF TAF UTC NOAA

Error!

Example: see airport list